Time;durP1;ratioP1;P1;durP2;ratioP2;P2;SDS_P1;SDS_P2;PMS_P1;PMS_P2;Temp;Humidity;BMP_temperature;BMP_pressure;BME280_temperature;BME280_humidity;BME280_pressure;Samples;Min_cycle;Max_cycle;Signal;HPM_P1;HPM_P2
2023/04/04 00:00:59;;;;;;;;;;;;;;;-142.25;100.00;58004.16;4916233;29;19927;-68
2023/04/04 00:03:26;;;;;;;;;;;;;;;-142.25;100.00;58004.16;4915470;29;19954;-68
2023/04/04 00:05:52;;;;;;;;;;;;;;;-142.25;100.00;58004.16;4914975;29;19927;-68
2023/04/04 00:08:17;;;;;;;;;;;;;;;-142.25;100.00;58004.16;4914513;29;19946;-68
2023/04/04 00:10:43;;;;;;;;;;;;;;;-142.25;100.00;58004.16;4913128;29;19943;-69
2023/04/04 00:13:08;;;;;;;;;;;;;;;-142.25;100.00;58004.16;4930416;29;19927;-69
2023/04/04 00:15:35;;;;;;;;;;;;;;;-142.25;100.00;58004.16;4913116;29;20035;-69
2023/04/04 00:18:03;;;;;;;;;;;;;;;-142.25;100.00;58004.16;4915886;29;19923;-69
2023/04/04 00:20:29;;;;;;;;;;;;;;;-142.25;100.00;58004.16;4916396;29;20234;-68
2023/04/04 00:22:56;;;;;;;;;;;;;;;-142.25;100.00;58004.16;4917368;29;20347;-69
2023/04/04 00:25:22;;;;;;;;;;;;;;;-142.25;100.00;58004.16;4930246;29;20262;-68
2023/04/04 00:27:47;;;;;;;;;;;;;;;-142.25;100.00;58004.16;4915839;29;20386;-69
2023/04/04 00:30:13;;;;;;;;;;;;;;;-142.25;100.00;58004.16;4914890;29;20321;-68
2023/04/04 00:32:40;;;;;;;;;;;;;;;-142.25;100.00;58004.16;4920628;29;20143;-68
2023/04/04 00:35:06;;;;;;;;;;;;;;;-142.25;100.00;58004.16;4913359;29;19931;-69
2023/04/04 00:37:31;;;;;;;;;;;;;;;-142.25;100.00;58004.16;4911314;29;19934;-69
2023/04/04 00:39:57;;;;;;;;;;;;;;;-142.25;100.00;58004.16;4914369;29;19927;-68
2023/04/04 00:42:23;;;;;;;;;;;;;;;-142.25;100.00;58004.16;4915815;29;20302;-70
2023/04/04 00:44:50;;;;;;;;;;;;;;;-142.25;100.00;58004.16;4916465;29;20485;-68
2023/04/04 00:47:16;;;;;;;;;;;;;;;-142.25;100.00;58004.16;4926963;29;19975;-69
2023/04/04 00:49:43;;;;;;;;;;;;;;;-142.25;100.00;58004.16;4915686;29;19923;-68
2023/04/04 00:52:09;;;;;;;;;;;;;;;-142.25;100.00;58004.16;4929097;29;20293;-68
2023/04/04 00:54:35;;;;;;;;;;;;;;;-142.25;100.00;58004.16;4914704;29;19927;-68
2023/04/04 00:57:01;;;;;;;;;;;;;;;-142.25;100.00;58004.16;4928196;29;19945;-68
2023/04/04 00:59:27;;;;;;;;;;;;;;;-142.25;100.00;58004.16;4916348;29;19990;-68
2023/04/04 01:01:53;;;;;;;;;;;;;;;-142.25;100.00;58004.16;4914208;29;20017;-68
2023/04/04 01:04:19;;;;;;;;;;;;;;;-142.25;100.00;58004.16;4916379;29;19933;-68
2023/04/04 01:06:45;;;;;;;;;;;;;;;-142.25;100.00;58004.16;4912587;29;20242;-68
2023/04/04 01:09:11;;;;;;;;;;;;;;;-142.25;100.00;58004.16;4914515;29;19934;-68
2023/04/04 01:11:37;;;;;;;;;;;;;;;-142.25;100.00;58004.16;4915117;29;19931;-69
2023/04/04 01:14:03;;;;;;;;;;;;;;;-142.25;100.00;58004.16;4927346;29;19927;-69
2023/04/04 01:16:29;;;;;;;;;;;;;;;-142.25;100.00;58004.16;4921669;29;20330;-68
2023/04/04 01:18:55;;;;;;;;;;;;;;;-142.25;100.00;58004.16;4913931;29;19926;-69
2023/04/04 01:21:21;;;;;;;;;;;;;;;-142.25;100.00;58004.16;4928280;29;19926;-69
2023/04/04 01:23:47;;;;;;;;;;;;;;;-142.25;100.00;58004.16;4910493;29;20465;-69
2023/04/04 01:26:14;;;;;;;;;;;;;;;-142.25;100.00;58004.16;4911326;29;19985;-69
2023/04/04 01:28:40;;;;;;;;;;;;;;;-142.25;100.00;58004.16;4910591;29;20406;-68
2023/04/04 01:31:11;;;;;;;;;;;;;;;-142.25;100.00;58004.16;4913798;29;20440;-68
2023/04/04 01:33:42;;;;;;;;;;;;;;;-142.25;100.00;58004.16;4912650;29;19922;-69
2023/04/04 01:36:08;;;;;;;;;;;;;;;-142.25;100.00;58004.16;4911812;29;19922;-68
2023/04/04 01:38:43;;;;;;;;;;;;;;;-142.25;100.00;58004.16;4926961;29;20271;-68
2023/04/04 01:41:09;;;;;;;;;;;;;;;-142.25;100.00;58004.16;4921106;29;19942;-67
2023/04/04 01:43:39;;;;;;;;;;;;;;;-142.25;100.00;58004.16;4910662;29;19990;-68
2023/04/04 01:46:04;;;;;;;;;;;;;;;-142.25;100.00;58004.16;4915501;29;19933;-67
2023/04/04 01:48:30;;;;;;;;;;;;;;;-142.25;100.00;58004.16;4911524;29;19926;-68
2023/04/04 01:51:01;;;;;;;;;;;;;;;-142.25;100.00;58004.16;4911727;29;19962;-67
2023/04/04 01:53:27;;;;;;;;;;;;;;;-142.25;100.00;58004.16;4911454;29;20046;-67
2023/04/04 01:55:53;;;;;;;;;;;;;;;-142.25;100.00;58004.16;4910149;29;19926;-67
2023/04/04 01:58:19;;;;;;;;;;;;;;;-142.25;100.00;58004.16;4909096;29;20354;-67
2023/04/04 02:00:45;;;;;;;;;;;;;;;-142.25;100.00;58004.16;4912115;29;19974;-68
2023/04/04 02:03:11;;;;;;;;;;;;;;;-142.25;100.00;58004.16;4914120;29;19930;-67
2023/04/04 02:05:36;;;;;;;;;;;;;;;-142.25;100.00;58004.16;4918195;29;20379;-67
2023/04/04 02:08:01;;;;;;;;;;;;;;;-142.25;100.00;58004.16;4913625;29;19982;-67
2023/04/04 02:10:34;;;;;;;;;;;;;;;-142.25;100.00;58004.16;4912006;29;20003;-67
2023/04/04 02:13:00;;;;;;;;;;;;;;;-142.25;100.00;58004.16;4910045;29;20329;-67
2023/04/04 02:15:25;;;;;;;;;;;;;;;-142.25;100.00;58004.16;4910709;29;20635;-67
2023/04/04 02:17:51;;;;;;;;;;;;;;;-142.25;100.00;58004.16;4913017;29;20346;-67
2023/04/04 02:20:20;;;;;;;;;;;;;;;-142.25;100.00;58004.16;4910860;29;19966;-67
2023/04/04 02:22:52;;;;;;;;;;;;;;;-142.25;100.00;58004.16;4910416;29;19927;-67
2023/04/04 02:25:19;;;;;;;;;;;;;;;-142.25;100.00;58004.16;4911808;29;20493;-67
2023/04/04 02:27:44;;;;;;;;;;;;;;;-142.25;100.00;58004.16;4913722;29;19934;-67
2023/04/04 02:30:10;;;;;;;;;;;;;;;-142.25;100.00;58004.16;4914305;29;20013;-68
2023/04/04 02:32:36;;;;;;;;;;;;;;;-142.25;100.00;58004.16;4924928;29;19931;-67
2023/04/04 02:35:05;;;;;;;;;;;;;;;-142.25;100.00;58004.16;4910637;29;19926;-66
2023/04/04 02:37:35;;;;;;;;;;;;;;;-142.25;100.00;58004.16;4910564;29;20077;-66
2023/04/04 02:40:05;;;;;;;;;;;;;;;-142.25;100.00;58004.16;4910628;29;20459;-66
2023/04/04 02:42:34;;;;;;;;;;;;;;;-142.25;100.00;58004.16;4910771;29;19934;-67
2023/04/04 02:45:00;;;;;;;;;;;;;;;-142.25;100.00;58004.16;4911280;29;20358;-66
2023/04/04 02:47:25;;;;;;;;;;;;;;;-142.25;100.00;58004.16;4912226;29;20381;-66
2023/04/04 02:49:51;;;;;;;;;;;;;;;-142.25;100.00;58004.16;4912767;29;20321;-65
2023/04/04 02:52:17;;;;;;;;;;;;;;;-142.25;100.00;58004.16;4919819;29;19926;-66
2023/04/04 02:54:45;;;;;;;;;;;;;;;-142.25;100.00;58004.16;4908803;29;20368;-65
2023/04/04 02:57:18;;;;;;;;;;;;;;;-142.25;100.00;58004.16;4907952;29;20002;-66
2023/04/04 02:59:43;;;;;;;;;;;;;;;-142.25;100.00;58004.16;4913482;29;20006;-66
2023/04/04 03:02:09;;;;;;;;;;;;;;;-142.25;100.00;58004.16;4914284;29;20469;-66
2023/04/04 03:04:35;;;;;;;;;;;;;;;-142.25;100.00;58004.16;4911413;29;20010;-66
2023/04/04 03:07:02;;;;;;;;;;;;;;;-142.25;100.00;58004.16;4913943;29;20307;-65
2023/04/04 03:09:28;;;;;;;;;;;;;;;-142.25;100.00;58004.16;4910354;29;20767;-66
2023/04/04 03:11:54;;;;;;;;;;;;;;;-142.25;100.00;58004.16;4912586;29;20007;-66
2023/04/04 03:14:20;;;;;;;;;;;;;;;-142.25;100.00;58004.16;4926803;29;19926;-67
2023/04/04 03:16:48;;;;;;;;;;;;;;;-142.25;100.00;58004.16;4913285;29;19927;-66
2023/04/04 03:19:13;;;;;;;;;;;;;;;-142.25;100.00;58004.16;4906109;29;19922;-66
2023/04/04 03:21:40;;;;;;;;;;;;;;;-142.25;100.00;58004.16;4914268;29;19955;-67
2023/04/04 03:24:06;;;;;;;;;;;;;;;-142.25;100.00;58004.16;4918933;29;20379;-67
2023/04/04 03:26:32;;;;;;;;;;;;;;;-142.25;100.00;58004.16;4913704;29;19943;-68
2023/04/04 03:28:57;;;;;;;;;;;;;;;-142.25;100.00;58004.16;4913162;29;20847;-67
2023/04/04 03:31:24;;;;;;;;;;;;;;;-142.25;100.00;58004.16;4917322;29;19927;-67
2023/04/04 03:33:49;;;;;;;;;;;;;;;-142.25;100.00;58004.16;4931374;28;19923;-67
2023/04/04 03:36:15;;;;;;;;;;;;;;;-142.25;100.00;58004.16;4930437;29;19930;-66
2023/04/04 03:38:41;;;;;;;;;;;;;;;-142.25;100.00;58004.16;4915633;29;19934;-66
2023/04/04 03:41:08;;;;;;;;;;;;;;;-142.25;100.00;58004.16;4915752;29;19923;-67
2023/04/04 03:43:34;;;;;;;;;;;;;;;-142.25;100.00;58004.16;4909591;29;19933;-65
2023/04/04 03:46:03;;;;;;;;;;;;;;;-142.25;100.00;58004.16;4917939;29;19926;-68
2023/04/04 03:48:28;;;;;;;;;;;;;;;-142.25;100.00;58004.16;4917751;29;19978;-68
2023/04/04 03:50:57;;;;;;;;;;;;;;;-142.25;100.00;58004.16;4918117;29;20387;-65
2023/04/04 03:53:24;;;;;;;;;;;;;;;-142.25;100.00;58004.16;4926341;29;20017;-65
2023/04/04 03:55:49;;;;;;;;;;;;;;;-142.25;100.00;58004.16;4917862;29;19970;-65
2023/04/04 03:58:15;;;;;;;;;;;;;;;-142.25;100.00;58004.16;4931023;29;20034;-64
2023/04/04 04:00:40;;;;;;;;;;;;;;;-142.25;100.00;58004.16;4915644;29;19930;-60
2023/04/04 04:03:06;;;;;;;;;;;;;;;-142.25;100.00;58004.16;4922617;29;20021;-65
2023/04/04 04:05:31;;;;;;;;;;;;;;;-142.25;100.00;58004.16;4918274;29;20054;-64
2023/04/04 04:07:57;;;;;;;;;;;;;;;-142.25;100.00;58004.16;4918666;29;19927;-66
2023/04/04 04:10:22;;;;;;;;;;;;;;;-142.25;100.00;58004.16;4919562;29;20289;-66
2023/04/04 04:12:48;;;;;;;;;;;;;;;-142.25;100.00;58004.16;4931337;28;20242;-65
2023/04/04 04:15:14;;;;;;;;;;;;;;;-142.25;100.00;58004.16;4927294;29;19927;-66
2023/04/04 04:17:41;;;;;;;;;;;;;;;-142.25;100.00;58004.16;4916413;29;20057;-66
2023/04/04 04:20:11;;;;;;;;;;;;;;;-142.25;100.00;58004.16;4901941;29;19927;-66
2023/04/04 04:22:48;;;;;;;;;;;;;;;-142.25;100.00;58004.16;4916017;29;19929;-66
2023/04/04 04:25:15;;;;;;;;;;;;;;;-142.25;100.00;58004.16;4916417;29;19923;-64
2023/04/04 04:27:45;;;;;;;;;;;;;;;-142.25;100.00;58004.16;4930226;29;19919;-65
2023/04/04 04:30:12;;;;;;;;;;;;;;;-142.25;100.00;58004.16;4914462;29;19922;-64
2023/04/04 04:32:41;;;;;;;;;;;;;;;-142.25;100.00;58004.16;4915266;29;19962;-64
2023/04/04 04:35:08;;;;;;;;;;;;;;;-142.25;100.00;58004.16;4914531;29;20304;-66
2023/04/04 04:37:36;;;;;;;;;;;;;;;-142.25;100.00;58004.16;4913559;29;19938;-64
2023/04/04 04:40:03;;;;;;;;;;;;;;;-142.25;100.00;58004.16;4915618;29;19966;-64
2023/04/04 04:42:36;;;;;;;;;;;;;;;-142.25;100.00;58004.16;4914041;29;19930;-64
2023/04/04 04:45:03;;;;;;;;;;;;;;;-142.25;100.00;58004.16;4922669;29;19927;-66
2023/04/04 04:47:32;;;;;;;;;;;;;;;-142.25;100.00;58004.16;4912836;29;20526;-64
2023/04/04 04:50:00;;;;;;;;;;;;;;;-142.25;100.00;58004.16;4913878;29;19926;-65
2023/04/04 04:52:37;;;;;;;;;;;;;;;-142.25;100.00;58004.16;4922494;29;20420;-64
2023/04/04 04:55:04;;;;;;;;;;;;;;;-142.25;100.00;58004.16;4929839;29;19927;-64
2023/04/04 04:57:30;;;;;;;;;;;;;;;-142.25;100.00;58004.16;4919859;29;19929;-65
2023/04/04 05:00:05;;;;;;;;;;;;;;;-142.25;100.00;58004.16;4913416;29;19931;-66
2023/04/04 05:02:30;;;;;;;;;;;;;;;-142.25;100.00;58004.16;4915350;29;20358;-65
2023/04/04 05:04:56;;;;;;;;;;;;;;;-142.25;100.00;58004.16;4915988;29;20138;-63
2023/04/04 05:07:22;;;;;;;;;;;;;;;-142.25;100.00;58004.16;4913476;29;19927;-65
2023/04/04 05:09:49;;;;;;;;;;;;;;;-142.25;100.00;58004.16;4910944;29;19923;-65
2023/04/04 05:12:16;;;;;;;;;;;;;;;-142.25;100.00;58004.16;4914748;29;20184;-65
2023/04/04 05:14:45;;;;;;;;;;;;;;;-142.25;100.00;58004.16;4914317;29;20365;-63
2023/04/04 05:17:10;;;;;;;;;;;;;;;-142.25;100.00;58004.16;4915688;29;19923;-65
2023/04/04 05:19:36;;;;;;;;;;;;;;;-142.25;100.00;58004.16;4928881;29;20021;-64
2023/04/04 05:22:02;;;;;;;;;;;;;;;-142.25;100.00;58004.16;4929433;29;20327;-65
2023/04/04 05:24:36;;;;;;;;;;;;;;;-142.25;100.00;58004.16;4916468;29;19931;-65
2023/04/04 05:27:02;;;;;;;;;;;;;;;-142.25;100.00;58004.16;4897087;29;20510;-64
2023/04/04 05:29:34;;;;;;;;;;;;;;;-142.25;100.00;58004.16;4927339;29;19926;-65
2023/04/04 05:32:01;;;;;;;;;;;;;;;-142.25;100.00;58004.16;4928384;29;20426;-65
2023/04/04 05:34:27;;;;;;;;;;;;;;;-142.25;100.00;58004.16;4914844;29;20098;-65
2023/04/04 05:36:53;;;;;;;;;;;;;;;-142.25;100.00;58004.16;4912752;29;20321;-65
2023/04/04 05:39:19;;;;;;;;;;;;;;;-142.25;100.00;58004.16;4911764;29;19934;-65
2023/04/04 05:41:56;;;;;;;;;;;;;;;-142.25;100.00;58004.16;4913568;29;20358;-65
2023/04/04 05:44:23;;;;;;;;;;;;;;;-142.25;100.00;58004.16;4913068;29;19934;-65
2023/04/04 05:46:48;;;;;;;;;;;;;;;-142.25;100.00;58004.16;4912226;29;19927;-65
2023/04/04 05:49:14;;;;;;;;;;;;;;;-142.25;100.00;58004.16;4909902;29;20366;-65
2023/04/04 05:51:47;;;;;;;;;;;;;;;-142.25;100.00;58004.16;4911239;29;20397;-65
2023/04/04 05:54:14;;;;;;;;;;;;;;;-142.25;100.00;58004.16;4912882;29;19974;-64
2023/04/04 05:56:41;;;;;;;;;;;;;;;-142.25;100.00;58004.16;4904359;29;20117;-67
2023/04/04 05:59:15;;;;;;;;;;;;;;;-142.25;100.00;58004.16;4914095;29;19981;-65
2023/04/04 06:01:52;;;;;;;;;;;;;;;-142.25;100.00;58004.16;4913130;29;20192;-65
2023/04/04 06:04:18;;;;;;;;;;;;;;;-142.25;100.00;58004.16;4913136;29;20346;-66
2023/04/04 06:06:44;;;;;;;;;;;;;;;-142.25;100.00;58004.16;4913183;29;19937;-65
2023/04/04 06:09:10;;;;;;;;;;;;;;;-142.25;100.00;58004.16;4926896;29;19938;-65
2023/04/04 06:11:36;;;;;;;;;;;;;;;-142.25;100.00;58004.16;4913954;29;19930;-63
2023/04/04 06:14:07;;;;;;;;;;;;;;;-142.25;100.00;58004.16;4911880;29;20479;-63
2023/04/04 06:16:33;;;;;;;;;;;;;;;-142.25;100.00;58004.16;4910957;29;20293;-66
2023/04/04 06:18:58;;;;;;;;;;;;;;;-142.25;100.00;58004.16;4911991;29;20401;-65
2023/04/04 06:21:25;;;;;;;;;;;;;;;-142.25;100.00;58004.16;4923877;29;19962;-65
2023/04/04 06:23:51;;;;;;;;;;;;;;;-142.25;100.00;58004.16;4910542;29;19970;-65
2023/04/04 06:26:16;;;;;;;;;;;;;;;-142.25;100.00;58004.16;4913318;29;19927;-64
2023/04/04 06:28:48;;;;;;;;;;;;;;;-142.25;100.00;58004.16;4911117;29;19923;-65
2023/04/04 06:31:17;;;;;;;;;;;;;;;-142.25;100.00;58004.16;4911268;29;19931;-64
2023/04/04 06:33:43;;;;;;;;;;;;;;;-142.25;100.00;58004.16;4910579;29;19979;-66
2023/04/04 06:36:09;;;;;;;;;;;;;;;-142.25;100.00;58004.16;4916725;29;19930;-66
2023/04/04 06:38:35;;;;;;;;;;;;;;;-142.25;100.00;58004.16;4910804;29;19927;-66
2023/04/04 06:41:06;;;;;;;;;;;;;;;-142.25;100.00;58004.16;4913365;29;19931;-66
2023/04/04 06:43:31;;;;;;;;;;;;;;;-142.25;100.00;58004.16;4912673;29;19927;-67
2023/04/04 06:45:58;;;;;;;;;;;;;;;-142.25;100.00;58004.16;4913789;29;20446;-67
2023/04/04 06:48:23;;;;;;;;;;;;;;;-142.25;100.00;58004.16;4911452;29;19927;-67
2023/04/04 06:50:49;;;;;;;;;;;;;;;-142.25;100.00;58004.16;4910355;29;20270;-67
2023/04/04 06:53:16;;;;;;;;;;;;;;;-142.25;100.00;58004.16;4910034;29;20013;-66
2023/04/04 06:55:42;;;;;;;;;;;;;;;-142.25;100.00;58004.16;4927540;29;20793;-66
2023/04/04 06:58:08;;;;;;;;;;;;;;;-142.25;100.00;58004.16;4912227;29;19973;-66
2023/04/04 07:00:33;;;;;;;;;;;;;;;-142.25;100.00;58004.16;4910721;29;19939;-67
2023/04/04 07:02:59;;;;;;;;;;;;;;;-142.25;100.00;58004.16;4914038;29;19990;-64
2023/04/04 07:05:25;;;;;;;;;;;;;;;-142.25;100.00;58004.16;4913501;29;20312;-65
2023/04/04 07:07:53;;;;;;;;;;;;;;;-142.25;100.00;58004.16;4915393;29;19926;-64
2023/04/04 07:10:19;;;;;;;;;;;;;;;-142.25;100.00;58004.16;4916014;29;20451;-63
2023/04/04 07:12:45;;;;;;;;;;;;;;;-142.25;100.00;58004.16;4915814;29;19926;-64
2023/04/04 07:15:11;;;;;;;;;;;;;;;-142.25;100.00;58004.16;4915988;29;20279;-64
2023/04/04 07:17:37;;;;;;;;;;;;;;;-142.25;100.00;58004.16;4915942;29;19923;-66
2023/04/04 07:20:04;;;;;;;;;;;;;;;-142.25;100.00;58004.16;4915638;29;19927;-65
2023/04/04 07:22:30;;;;;;;;;;;;;;;-142.25;100.00;58004.16;4917117;29;20025;-65
2023/04/04 07:24:55;;;;;;;;;;;;;;;-142.25;100.00;58004.16;4917981;29;20058;-68
2023/04/04 07:27:21;;;;;;;;;;;;;;;-142.25;100.00;58004.16;4915732;29;20021;-66
2023/04/04 07:29:46;;;;;;;;;;;;;;;-142.25;100.00;58004.16;4912797;29;19969;-65
2023/04/04 07:32:12;;;;;;;;;;;;;;;-142.25;100.00;58004.16;4914729;29;19923;-65
2023/04/04 07:34:37;;;;;;;;;;;;;;;-142.25;100.00;58004.16;4916238;29;20413;-65
2023/04/04 07:37:03;;;;;;;;;;;;;;;-142.25;100.00;58004.16;4914598;29;19969;-66
2023/04/04 07:39:28;;;;;;;;;;;;;;;-142.25;100.00;58004.16;4916096;29;20015;-65
2023/04/04 07:41:54;;;;;;;;;;;;;;;-142.25;100.00;58004.16;4923356;29;19927;-66
2023/04/04 07:44:19;;;;;;;;;;;;;;;-142.25;100.00;58004.16;4916538;29;20058;-66
2023/04/04 07:46:45;;;;;;;;;;;;;;;-142.25;100.00;58004.16;4913440;29;19926;-66
2023/04/04 07:49:11;;;;;;;;;;;;;;;-142.25;100.00;58004.16;4912371;29;20457;-66
2023/04/04 07:51:38;;;;;;;;;;;;;;;-142.25;100.00;58004.16;4914493;29;19987;-65
2023/04/04 07:54:04;;;;;;;;;;;;;;;-142.25;100.00;58004.16;4913698;29;20495;-66
2023/04/04 07:56:29;;;;;;;;;;;;;;;-142.25;100.00;58004.16;4914667;29;19923;-66
2023/04/04 07:58:55;;;;;;;;;;;;;;;-142.25;100.00;58004.16;4916903;29;19998;-66
2023/04/04 08:01:21;;;;;;;;;;;;;;;-142.25;100.00;58004.16;4918595;29;20324;-67
2023/04/04 08:03:48;;;;;;;;;;;;;;;-142.25;100.00;58004.16;4915912;29;19922;-66
2023/04/04 08:06:14;;;;;;;;;;;;;;;-142.25;100.00;58004.16;4914182;29;20112;-66
2023/04/04 08:08:40;;;;;;;;;;;;;;;-142.25;100.00;58004.16;4913427;29;19931;-66
2023/04/04 08:11:06;;;;;;;;;;;;;;;-142.25;100.00;58004.16;4915593;29;19931;-66
2023/04/04 08:13:31;;;;;;;;;;;;;;;-142.25;100.00;58004.16;4914595;29;21043;-67
2023/04/04 08:15:57;;;;;;;;;;;;;;;-142.25;100.00;58004.16;4914211;29;20465;-66
2023/04/04 08:18:22;;;;;;;;;;;;;;;-142.25;100.00;58004.16;4913031;29;20430;-66
2023/04/04 08:20:48;;;;;;;;;;;;;;;-142.25;100.00;58004.16;4916079;29;20282;-67
2023/04/04 08:23:14;;;;;;;;;;;;;;;-142.25;100.00;58004.16;4914383;29;20358;-66
2023/04/04 08:25:39;;;;;;;;;;;;;;;-142.25;100.00;58004.16;4914243;29;19930;-66
2023/04/04 08:28:05;;;;;;;;;;;;;;;-142.25;100.00;58004.16;4913718;29;19927;-65
2023/04/04 08:30:30;;;;;;;;;;;;;;;-142.25;100.00;58004.16;4915587;29;19926;-66
2023/04/04 08:32:56;;;;;;;;;;;;;;;-142.25;100.00;58004.16;4912734;29;19931;-66
2023/04/04 08:35:21;;;;;;;;;;;;;;;-142.25;100.00;58004.16;4913584;29;20588;-65
2023/04/04 08:37:47;;;;;;;;;;;;;;;-142.25;100.00;58004.16;4913641;29;20015;-66
2023/04/04 08:40:13;;;;;;;;;;;;;;;-142.25;100.00;58004.16;4914354;29;19926;-65
2023/04/04 08:42:39;;;;;;;;;;;;;;;-142.25;100.00;58004.16;4914508;29;19934;-66
2023/04/04 08:45:06;;;;;;;;;;;;;;;-142.25;100.00;58004.16;4915128;29;20383;-67
2023/04/04 08:47:34;;;;;;;;;;;;;;;-142.25;100.00;58004.16;4915940;29;19969;-67
2023/04/04 08:50:03;;;;;;;;;;;;;;;-142.25;100.00;58004.16;4928694;28;19927;-62
2023/04/04 08:52:30;;;;;;;;;;;;;;;-142.25;100.00;58004.16;4912383;29;19930;-65
2023/04/04 08:54:56;;;;;;;;;;;;;;;-142.25;100.00;58004.16;4910845;29;20013;-63
2023/04/04 08:57:22;;;;;;;;;;;;;;;-142.25;100.00;58004.16;4913015;29;19930;-61
2023/04/04 08:59:48;;;;;;;;;;;;;;;-142.25;100.00;58004.16;4911290;29;19923;-70
2023/04/04 09:02:15;;;;;;;;;;;;;;;-142.25;100.00;58004.16;4913447;29;19919;-70
2023/04/04 09:04:42;;;;;;;;;;;;;;;-142.25;100.00;58004.16;4910414;29;19986;-68
2023/04/04 09:07:08;;;;;;;;;;;;;;;-142.25;100.00;58004.16;4911754;29;19982;-69
2023/04/04 09:09:36;;;;;;;;;;;;;;;-142.25;100.00;58004.16;4913527;29;19927;-70
2023/04/04 09:12:02;;;;;;;;;;;;;;;-142.25;100.00;58004.16;4914359;29;20017;-69
2023/04/04 09:14:30;;;;;;;;;;;;;;;-142.25;100.00;58004.16;4914115;29;19939;-69
2023/04/04 09:16:56;;;;;;;;;;;;;;;-142.25;100.00;58004.16;4913987;29;19927;-68
2023/04/04 09:19:22;;;;;;;;;;;;;;;-142.25;100.00;58004.16;4914149;29;19923;-69
2023/04/04 09:21:48;;;;;;;;;;;;;;;-142.25;100.00;58004.16;4913725;29;19926;-69
2023/04/04 09:24:14;;;;;;;;;;;;;;;-142.25;100.00;58004.16;4913845;29;19978;-70
2023/04/04 09:26:46;;;;;;;;;;;;;;;-142.25;100.00;58004.16;4915331;29;19922;-62
2023/04/04 09:29:12;;;;;;;;;;;;;;;-142.25;100.00;58004.16;4915666;29;19923;-68
2023/04/04 09:31:38;;;;;;;;;;;;;;;-142.25;100.00;58004.16;4912466;29;19926;-69
2023/04/04 09:34:04;;;;;;;;;;;;;;;-142.25;100.00;58004.16;4921903;29;19931;-68
2023/04/04 09:36:30;;;;;;;;;;;;;;;-142.25;100.00;58004.16;4913167;29;20017;-69
2023/04/04 09:38:56;;;;;;;;;;;;;;;-142.25;100.00;58004.16;4921596;29;19930;-69
2023/04/04 09:41:21;;;;;;;;;;;;;;;-142.25;100.00;58004.16;4920051;29;19964;-69
2023/04/04 09:43:47;;;;;;;;;;;;;;;-142.25;100.00;58004.16;4914588;29;19981;-71
2023/04/04 09:46:14;;;;;;;;;;;;;;;-142.25;100.00;58004.16;4914894;29;19926;-69
2023/04/04 09:48:47;;;;;;;;;;;;;;;-142.25;100.00;58004.16;4913796;29;20355;-69
2023/04/04 09:51:12;;;;;;;;;;;;;;;-142.25;100.00;58004.16;4912782;29;20398;-69
2023/04/04 09:53:41;;;;;;;;;;;;;;;-142.25;100.00;58004.16;4913837;29;20033;-69
2023/04/04 09:56:07;;;;;;;;;;;;;;;-142.25;100.00;58004.16;4913960;29;20487;-70
2023/04/04 09:58:35;;;;;;;;;;;;;;;-142.25;100.00;58004.16;4910779;29;19923;-69
2023/04/04 10:01:02;;;;;;;;;;;;;;;-142.25;100.00;58004.16;4912243;29;20105;-71
2023/04/04 10:03:28;;;;;;;;;;;;;;;-142.25;100.00;58004.16;4913098;29;19923;-72
2023/04/04 10:06:04;;;;;;;;;;;;;;;-142.25;100.00;58004.16;4913323;29;19974;-72
2023/04/04 10:08:30;;;;;;;;;;;;;;;-142.25;100.00;58004.16;4914226;29;19931;-71
2023/04/04 10:10:57;;;;;;;;;;;;;;;-142.25;100.00;58004.16;4912319;29;19976;-72
2023/04/04 10:13:23;;;;;;;;;;;;;;;-142.25;100.00;58004.16;4912764;29;19919;-72
2023/04/04 10:15:50;;;;;;;;;;;;;;;-142.25;100.00;58004.16;4913646;29;19927;-72
2023/04/04 10:18:17;;;;;;;;;;;;;;;-142.25;100.00;58004.16;4911867;29;19946;-70
2023/04/04 10:20:43;;;;;;;;;;;;;;;-142.25;100.00;58004.16;4912598;29;19939;-69
2023/04/04 10:23:08;;;;;;;;;;;;;;;-142.25;100.00;58004.16;4912487;29;19926;-71
2023/04/04 10:25:35;;;;;;;;;;;;;;;-142.25;100.00;58004.16;4913804;29;19931;-70
2023/04/04 10:28:01;;;;;;;;;;;;;;;-142.25;100.00;58004.16;4910077;29;20374;-71
2023/04/04 10:30:27;;;;;;;;;;;;;;;-142.25;100.00;58004.16;4911731;29;19923;-72
2023/04/04 10:32:56;;;;;;;;;;;;;;;-142.25;100.00;58004.16;4914100;29;20588;-71
2023/04/04 10:35:23;;;;;;;;;;;;;;;-142.25;100.00;58004.16;4915109;29;19922;-71
2023/04/04 10:37:59;;;;;;;;;;;;;;;-142.25;100.00;58004.16;4911546;29;20006;-71
2023/04/04 10:40:26;;;;;;;;;;;;;;;-142.25;100.00;58004.16;4925424;29;20382;-71
2023/04/04 10:42:54;;;;;;;;;;;;;;;-142.25;100.00;58004.16;4915232;29;19970;-71
2023/04/04 10:45:20;;;;;;;;;;;;;;;-142.25;100.00;58004.16;4912733;29;20026;-71
2023/04/04 10:47:46;;;;;;;;;;;;;;;-142.25;100.00;58004.16;4910601;29;19926;-71
2023/04/04 10:50:12;;;;;;;;;;;;;;;-142.25;100.00;58004.16;4916428;29;19961;-71
2023/04/04 10:52:39;;;;;;;;;;;;;;;-142.25;100.00;58004.16;4920642;29;19994;-71
2023/04/04 10:55:06;;;;;;;;;;;;;;;-142.25;100.00;58004.16;4930696;29;19922;-72
2023/04/04 10:57:32;;;;;;;;;;;;;;;-142.25;100.00;58004.16;4919097;29;19977;-72
2023/04/04 11:00:07;;;;;;;;;;;;;;;-142.25;100.00;58004.16;4916199;29;19923;-71
2023/04/04 11:02:51;;;;;;;;;;;;;;;-142.25;100.00;58004.16;4925496;29;19929;-70
2023/04/04 11:05:16;;;;;;;;;;;;;;;-142.25;100.00;58004.16;4918263;29;20398;-71
2023/04/04 11:07:43;;;;;;;;;;;;;;;-142.25;100.00;58004.16;4919721;29;20013;-71
2023/04/04 11:10:13;;;;;;;;;;;;;;;-142.25;100.00;58004.16;4917758;29;20363;-69
2023/04/04 11:12:44;;;;;;;;;;;;;;;-142.25;100.00;58004.16;4917408;29;19923;-70
2023/04/04 11:15:11;;;;;;;;;;;;;;;-142.25;100.00;58004.16;4914975;29;19929;-70
2023/04/04 11:17:56;;;;;;;;;;;;;;;-142.25;100.00;58004.16;4917886;29;19982;-71
2023/04/04 11:20:29;;;;;;;;;;;;;;;-142.25;100.00;58004.16;4922978;29;19923;-72
2023/04/04 11:23:04;;;;;;;;;;;;;;;-142.25;100.00;58004.16;4917924;29;19922;-71
2023/04/04 11:25:29;;;;;;;;;;;;;;;-142.25;100.00;58004.16;4915896;29;20378;-69
2023/04/04 11:27:56;;;;;;;;;;;;;;;-142.25;100.00;58004.16;4916615;29;19982;-71
2023/04/04 11:30:22;;;;;;;;;;;;;;;-142.25;100.00;58004.16;4918214;29;19934;-71
2023/04/04 11:32:49;;;;;;;;;;;;;;;-142.25;100.00;58004.16;4917322;29;19927;-73
2023/04/04 11:35:15;;;;;;;;;;;;;;;-142.25;100.00;58004.16;4918765;29;19977;-70
2023/04/04 11:37:58;;;;;;;;;;;;;;;-142.25;100.00;58004.16;4916710;29;20410;-70
2023/04/04 11:40:38;;;;;;;;;;;;;;;-142.25;100.00;58004.16;4915945;29;20422;-70
2023/04/04 11:43:08;;;;;;;;;;;;;;;-142.25;100.00;58004.16;4916542;29;20427;-71
2023/04/04 11:45:36;;;;;;;;;;;;;;;-142.25;100.00;58004.16;4917282;29;19923;-72
2023/04/04 11:48:05;;;;;;;;;;;;;;;-142.25;100.00;58004.16;4918211;29;19922;-72
2023/04/04 11:50:38;;;;;;;;;;;;;;;-142.25;100.00;58004.16;4918603;29;19927;-72
2023/04/04 11:53:04;;;;;;;;;;;;;;;-142.25;100.00;58004.16;4915815;29;19922;-70
2023/04/04 11:55:30;;;;;;;;;;;;;;;-142.25;100.00;58004.16;4916106;29;20358;-72
2023/04/04 11:57:58;;;;;;;;;;;;;;;-142.25;100.00;58004.16;4931425;29;20337;-70
2023/04/04 12:00:31;;;;;;;;;;;;;;;-142.25;100.00;58004.16;4921530;29;19930;-66
2023/04/04 12:02:57;;;;;;;;;;;;;;;-142.25;100.00;58004.16;4932659;29;19927;-70
2023/04/04 12:05:22;;;;;;;;;;;;;;;-142.25;100.00;58004.16;4921589;29;20675;-70
2023/04/04 12:07:49;;;;;;;;;;;;;;;-142.25;100.00;58004.16;4915890;29;20358;-69
2023/04/04 12:10:14;;;;;;;;;;;;;;;-142.25;100.00;58004.16;4916587;29;19923;-69
2023/04/04 12:12:41;;;;;;;;;;;;;;;-142.25;100.00;58004.16;4916651;29;20361;-70
2023/04/04 12:15:07;;;;;;;;;;;;;;;-142.25;100.00;58004.16;4913237;29;19927;-70
2023/04/04 12:17:38;;;;;;;;;;;;;;;-142.25;100.00;58004.16;4926411;29;20406;-69